Time;durP1;ratioP1;P1;durP2;ratioP2;P2;SDS_P1;SDS_P2;PMS_P1;PMS_P2;Temp;Humidity;BMP_temperature;BMP_pressure;BME280_temperature;BME280_humidity;BME280_pressure;Samples;Min_cycle;Max_cycle;Signal;HPM_P1;HPM_P2
2022/12/24 00:00:36;;;;;;;140.20;75.60;;;;;;;0.57;92.26;97834.02;86735;1312;99178;-76
2022/12/24 00:02:52;;;;;;;123.20;70.80;;;;;;;0.57;92.12;97839.23;86514;1284;25562;-76
2022/12/24 00:04:54;;;;;;;121.80;71.50;;;;;;;0.56;92.18;97834.42;86498;1290;25377;-76
2022/12/24 00:06:55;;;;;;;113.60;64.70;;;;;;;0.56;91.99;97837.35;86401;1293;99184;-77
2022/12/24 00:08:57;;;;;;;130.90;71.40;;;;;;;0.55;92.14;97834.44;86572;1280;25622;-76
2022/12/24 00:10:59;;;;;;;126.10;68.40;;;;;;;0.54;92.24;97831.34;86292;1301;22501;-76
2022/12/24 00:13:00;;;;;;;115.50;66.90;;;;;;;0.54;92.13;97827.55;86604;1295;98463;-76
2022/12/24 00:15:04;;;;;;;129.80;71.20;;;;;;;0.54;92.03;97831.52;86582;1288;22581;-75
2022/12/24 00:17:06;;;;;;;109.50;65.80;;;;;;;0.53;92.22;97825.48;86416;1291;22643;-76
2022/12/24 00:19:07;;;;;;;123.80;70.10;;;;;;;0.53;92.32;97816.86;86460;1291;98156;-75
2022/12/24 00:21:09;;;;;;;126.10;70.00;;;;;;;0.51;91.96;97810.83;86470;1288;22609;-77
2022/12/24 00:23:11;;;;;;;134.90;68.70;;;;;;;0.51;92.24;97806.19;86568;1291;22619;-76
2022/12/24 00:25:13;;;;;;;125.90;68.50;;;;;;;0.52;92.09;97803.92;86388;1298;99213;-76
2022/12/24 00:27:15;;;;;;;115.20;61.90;;;;;;;0.52;92.27;97804.45;86428;1291;22502;-76
2022/12/24 00:29:16;;;;;;;115.10;65.20;;;;;;;0.50;92.13;97800.48;86509;1287;25504;-75
2022/12/24 00:31:18;;;;;;;116.40;65.70;;;;;;;0.49;92.28;97794.63;86463;1291;98268;-76
2022/12/24 00:33:21;;;;;;;119.10;65.50;;;;;;;0.49;92.05;97795.52;86590;1288;22584;-76
2022/12/24 00:35:23;;;;;;;118.60;68.30;;;;;;;0.49;92.06;97793.41;86561;1291;22602;-76
2022/12/24 00:37:25;;;;;;;135.60;77.50;;;;;;;0.49;92.22;97785.48;86691;1287;99665;-76
2022/12/24 00:39:27;;;;;;;135.90;76.90;;;;;;;0.50;92.15;97783.73;86532;1288;22523;-76
2022/12/24 00:41:29;;;;;;;124.80;72.70;;;;;;;0.51;92.29;97784.76;86485;1289;22527;-76
2022/12/24 00:43:31;;;;;;;136.10;70.90;;;;;;;0.52;92.29;97785.41;86324;1291;98737;-78
2022/12/24 00:45:33;;;;;;;119.90;72.00;;;;;;;0.52;92.35;97785.41;86500;1291;22503;-76
2022/12/24 00:47:35;;;;;;;157.40;84.60;;;;;;;0.53;92.28;97784.88;86475;1292;22515;-76
2022/12/24 00:49:37;;;;;;;149.80;83.80;;;;;;;0.54;92.30;97786.07;86327;1297;97920;-76
2022/12/24 00:51:39;;;;;;;177.30;97.90;;;;;;;0.54;92.36;97783.46;86339;1290;25343;-78
2022/12/24 00:53:41;;;;;;;165.10;90.70;;;;;;;0.55;92.27;97785.50;86428;1290;23336;-76
2022/12/24 00:55:43;;;;;;;167.90;91.00;;;;;;;0.57;92.33;97783.21;86511;1288;23272;-76
2022/12/24 00:57:44;;;;;;;170.10;87.30;;;;;;;0.57;92.25;97785.10;86378;1288;23199;-76
2022/12/24 00:59:46;;;;;;;169.80;91.20;;;;;;;0.57;92.27;97780.09;86518;1288;99222;-77
2022/12/24 01:01:48;;;;;;;173.30;90.30;;;;;;;0.58;92.31;97776.45;86472;1291;24403;-76
2022/12/24 01:03:50;;;;;;;167.40;86.80;;;;;;;0.60;92.39;97773.27;86429;1281;23486;-76
2022/12/24 01:05:51;;;;;;;172.00;88.20;;;;;;;0.62;92.51;97759.03;86208;1306;100426;-75
2022/12/24 01:07:53;;;;;;;153.50;84.00;;;;;;;0.64;92.30;97759.33;86332;1291;22541;-75
2022/12/24 01:09:55;;;;;;;164.90;87.50;;;;;;;0.66;92.49;97755.98;86406;1280;22543;-75
2022/12/24 01:11:56;;;;;;;147.80;79.80;;;;;;;0.67;92.45;97752.49;86377;1285;99230;-75
2022/12/24 01:13:58;;;;;;;163.60;85.70;;;;;;;0.70;92.53;97751.92;86370;1295;22526;-74
2022/12/24 01:16:00;;;;;;;152.10;81.50;;;;;;;0.71;92.43;97749.29;86305;1291;22545;-74
2022/12/24 01:18:02;;;;;;;156.30;79.20;;;;;;;0.73;92.41;97746.99;86441;1287;98463;-73
2022/12/24 01:20:07;;;;;;;147.50;78.10;;;;;;;0.74;92.53;97742.48;86386;1288;23617;-73
2022/12/24 01:22:08;;;;;;;159.00;78.00;;;;;;;0.75;92.41;97738.81;86368;1295;22588;-74
2022/12/24 01:24:14;;;;;;;147.50;75.30;;;;;;;0.75;92.52;97741.39;86192;1290;102828;-74
2022/12/24 01:26:16;;;;;;;128.10;70.10;;;;;;;0.74;92.43;97745.39;86305;1288;22444;-74
2022/12/24 01:28:19;;;;;;;132.20;72.00;;;;;;;0.73;92.15;97742.47;86342;1287;24330;-74
2022/12/24 01:30:21;;;;;;;123.90;69.30;;;;;;;0.72;92.38;97742.86;86213;1283;98105;-74
2022/12/24 01:32:23;;;;;;;131.80;71.00;;;;;;;0.71;92.28;97740.98;86499;1296;22520;-75
2022/12/24 01:34:24;;;;;;;132.50;68.00;;;;;;;0.70;92.26;97735.31;86339;1291;22628;-75
2022/12/24 01:36:26;;;;;;;125.10;69.30;;;;;;;0.69;92.28;97726.35;86323;1288;98734;-74
2022/12/24 01:38:28;;;;;;;122.60;70.50;;;;;;;0.69;92.29;97724.96;86364;1288;22544;-74
2022/12/24 01:45:50;;;;;;;128.90;65.20;;;;;;;0.73;92.53;97738.34;86438;1280;24288;-74
2022/12/24 01:47:52;;;;;;;126.20;65.80;;;;;;;0.74;92.36;97733.98;86315;1288;98443;-74
2022/12/24 01:50:01;;;;;;;115.30;60.40;;;;;;;0.73;92.28;97734.01;86417;1288;22524;-74
2022/12/24 01:52:10;;;;;;;121.70;63.00;;;;;;;0.73;92.16;97734.01;86435;1288;27609;-74
2022/12/24 01:54:21;;;;;;;127.20;61.80;;;;;;;0.72;92.37;97733.53;86463;1295;98129;-73
2022/12/24 01:56:23;;;;;;;;;;;;;;;0.71;92.41;97732.52;86369;1288;24388;-75
2022/12/24 01:58:26;;;;;;;107.90;58.00;;;;;;;0.68;92.23;97736.39;86431;1288;22544;-75
2022/12/24 02:00:28;;;;;;;144.10;63.10;;;;;;;0.66;92.07;97735.60;86419;1285;99809;-74
2022/12/24 02:02:32;;;;;;;100.60;57.20;;;;;;;0.65;92.04;97739.59;86389;1288;23362;-74
2022/12/24 02:04:50;;;;;;;118.30;66.00;;;;;;;0.65;92.26;97745.30;86340;1287;24350;-74
2022/12/24 02:06:51;;;;;;;122.50;67.70;;;;;;;0.65;92.08;97737.53;86100;1290;99401;-74
2022/12/24 02:08:54;;;;;;;132.00;67.80;;;;;;;0.65;92.24;97735.09;86389;1290;24326;-74
2022/12/24 02:10:56;;;;;;;107.10;62.60;;;;;;;0.67;92.31;97735.57;86416;1288;25383;-74
2022/12/24 02:13:00;;;;;;;122.60;63.70;;;;;;;0.67;92.28;97736.26;86187;1290;99269;-75
2022/12/24 02:15:02;;;;;;;122.00;64.30;;;;;;;0.67;92.25;97733.49;86527;1287;24233;-75
2022/12/24 02:17:30;;;;;;;115.00;63.50;;;;;;;0.66;92.44;97729.89;86425;1284;22500;-75
2022/12/24 02:19:51;;;;;;;106.70;60.40;;;;;;;0.66;92.09;97723.48;86410;1281;98181;-75
2022/12/24 02:22:31;;;;;;;114.80;66.80;;;;;;;0.68;92.17;97722.77;86537;1297;25341;-74
2022/12/24 02:24:35;;;;;;;119.60;63.30;;;;;;;0.69;92.28;97721.17;86050;1287;99573;-74
2022/12/24 02:27:06;;;;;;;108.00;62.40;;;;;;;0.70;92.27;97720.63;86054;1294;23398;-73
2022/12/24 02:29:17;;;;;;;102.30;56.20;;;;;;;0.71;92.41;97713.16;85982;1294;25676;-75
2022/12/24 02:31:23;;;;;;;95.80;53.40;;;;;;;0.71;92.40;97712.99;86230;1291;98698;-74
2022/12/24 02:33:37;;;;;;;92.30;54.10;;;;;;;0.71;92.25;97710.73;86021;1286;23010;-74
2022/12/24 02:35:57;;;;;;;73.90;44.80;;;;;;;0.72;92.43;97712.79;86099;1289;22521;-74
2022/12/24 02:38:37;;;;;;;80.70;46.40;;;;;;;0.72;92.05;97712.45;86565;1287;22669;-75
2022/12/24 02:40:46;;;;;;;87.30;49.00;;;;;;;0.72;92.34;97713.84;85907;1307;22650;-74
2022/12/24 02:42:54;;;;;;;97.40;53.00;;;;;;;0.72;92.47;97715.39;86057;1294;98892;-74
2022/12/24 02:45:02;;;;;;;101.40;54.60;;;;;;;0.72;92.29;97709.66;86182;1290;22685;-74
2022/12/24 02:47:07;;;;;;;90.40;51.90;;;;;;;0.74;92.37;97705.10;86109;1294;26778;-75
2022/12/24 02:49:09;;;;;;;88.10;48.50;;;;;;;0.76;92.70;97707.13;85981;1292;98065;-75
2022/12/24 02:51:11;;;;;;;80.10;46.30;;;;;;;0.79;92.46;97714.30;86044;1293;22537;-75
2022/12/24 02:53:12;;;;;;;82.80;44.60;;;;;;;0.80;92.33;97716.53;86066;1293;22561;-75
2022/12/24 02:55:20;;;;;;;80.40;41.80;;;;;;;0.80;92.64;97713.42;86096;1293;97870;-74
2022/12/24 02:57:40;;;;;;;71.00;40.90;;;;;;;0.80;92.32;97714.45;86034;1296;22550;-75
2022/12/24 02:59:59;;;;;;;75.40;40.10;;;;;;;0.79;92.46;97719.84;86198;1294;22633;-75
2022/12/24 03:02:27;;;;;;;66.80;38.40;;;;;;;0.78;92.43;97719.16;86532;1288;22358;-75
2022/12/24 03:04:58;;;;;;;89.00;43.30;;;;;;;0.77;92.47;97711.07;86513;1287;25310;-75
2022/12/24 03:07:17;;;;;;;81.50;45.30;;;;;;;0.77;92.41;97720.41;86567;1287;99009;-75
2022/12/24 03:09:19;;;;;;;80.00;43.10;;;;;;;0.77;92.30;97723.01;86540;1292;22991;-75
2022/12/24 03:11:20;;;;;;;87.10;46.70;;;;;;;0.76;92.34;97709.21;86667;1304;22629;-75
2022/12/24 03:13:24;;;;;;;81.50;46.30;;;;;;;0.83;92.52;97707.24;86598;1287;98021;-73
2022/12/24 03:15:28;;;;;;;80.50;42.60;;;;;;;0.87;92.60;97710.63;86700;1288;23536;-75
2022/12/24 03:17:33;;;;;;;75.30;43.20;;;;;;;0.85;92.55;97718.27;86662;1296;22837;-74
2022/12/24 03:19:36;;;;;;;89.20;45.00;;;;;;;0.87;92.39;97726.53;86641;1287;98021;-75
2022/12/24 03:21:41;;;;;;;117.60;46.30;;;;;;;0.89;92.27;97723.52;86576;1298;22576;-75
2022/12/24 03:23:43;;;;;;;91.60;49.10;;;;;;;0.89;92.57;97715.58;86733;1287;22526;-75
2022/12/24 03:25:45;;;;;;;88.30;52.40;;;;;;;0.91;92.54;97709.63;86401;1297;100067;-74
2022/12/24 03:27:47;;;;;;;90.30;49.20;;;;;;;0.96;92.75;97712.24;86626;1304;22638;-75
2022/12/24 03:29:49;;;;;;;80.40;46.60;;;;;;;0.96;92.72;97723.48;86586;1309;22791;-76
2022/12/24 03:31:57;;;;;;;99.20;47.90;;;;;;;0.95;92.48;97728.20;86402;1291;98865;-75
2022/12/24 03:33:59;;;;;;;75.20;42.30;;;;;;;0.92;92.63;97721.03;86711;1297;22571;-76
2022/12/24 03:36:02;;;;;;;84.20;43.70;;;;;;;0.92;92.76;97730.86;86536;1288;99436;-75
2022/12/24 03:38:03;;;;;;;79.80;41.10;;;;;;;0.90;92.52;97729.38;86353;1296;23774;-75
2022/12/24 03:40:06;;;;;;;73.70;38.60;;;;;;;0.88;92.38;97726.52;86250;1297;23848;-75
2022/12/24 03:42:08;;;;;;;73.50;41.60;;;;;;;0.85;92.33;97718.61;86405;1295;99230;-74
2022/12/24 03:44:10;;;;;;;74.70;42.40;;;;;;;0.85;92.29;97727.07;86380;1289;22528;-75
2022/12/24 03:46:11;;;;;;;73.10;42.60;;;;;;;0.85;92.45;97730.06;86509;1295;23028;-74
2022/12/24 03:48:13;;;;;;;82.70;39.70;;;;;;;0.83;92.44;97729.92;86570;1287;100978;-75
2022/12/24 03:50:15;;;;;;;79.40;42.70;;;;;;;0.82;92.56;97735.31;86628;1288;22695;-75
2022/12/24 03:52:16;;;;;;;74.90;41.20;;;;;;;0.80;92.53;97737.44;86596;1291;22545;-75
2022/12/24 03:54:18;;;;;;;74.50;43.40;;;;;;;0.80;92.46;97738.33;86524;1288;98024;-76
2022/12/24 03:56:20;;;;;;;75.50;41.70;;;;;;;0.80;92.49;97742.13;86425;1291;25252;-76
2022/12/24 03:58:22;;;;;;;71.60;40.30;;;;;;;0.79;92.42;97738.35;86495;1291;22522;-74
2022/12/24 04:00:24;;;;;;;87.70;37.70;;;;;;;0.77;92.38;97741.67;86634;1288;97785;-74
2022/12/24 04:02:26;;;;;;;68.10;38.50;;;;;;;0.76;92.38;97741.89;86723;1289;23964;-75
2022/12/24 04:04:28;;;;;;;64.40;37.60;;;;;;;0.74;92.50;97738.83;86482;1290;23693;-75
2022/12/24 04:06:29;;;;;;;89.30;40.20;;;;;;;0.73;92.46;97747.17;86584;1287;99937;-75
2022/12/24 04:08:31;;;;;;;94.60;40.80;;;;;;;0.72;92.34;97745.64;86726;1288;22500;-75
2022/12/24 04:10:33;;;;;;;87.90;39.90;;;;;;;0.72;92.51;97741.48;86616;1291;22539;-75
2022/12/24 04:12:35;;;;;;;102.60;39.60;;;;;;;0.72;92.33;97742.16;86651;1288;98104;-75
2022/12/24 04:14:37;;;;;;;113.30;42.60;;;;;;;0.71;92.39;97735.98;86567;1288;22606;-75
2022/12/24 04:16:39;;;;;;;84.60;39.00;;;;;;;0.73;92.45;97738.17;86533;1297;22671;-75
2022/12/24 04:18:41;;;;;;;88.10;38.90;;;;;;;0.72;92.49;97738.55;86608;1288;99286;-75
2022/12/24 04:20:42;;;;;;;79.80;35.90;;;;;;;0.72;92.15;97740.28;86691;1287;22968;-75
2022/12/24 04:22:44;;;;;;;95.50;38.90;;;;;;;0.72;92.33;97741.84;86696;1284;23988;-76
2022/12/24 04:24:46;;;;;;;78.80;36.80;;;;;;;0.72;92.46;97738.36;86546;1292;98109;-75
2022/12/24 04:26:47;;;;;;;79.30;36.80;;;;;;;0.70;92.44;97736.33;86728;1287;23364;-75
2022/12/24 04:28:49;;;;;;;161.40;39.90;;;;;;;0.71;92.31;97736.49;86514;1290;23711;-75
2022/12/24 04:30:51;;;;;;;166.40;39.00;;;;;;;0.70;92.30;97739.63;86659;1285;99175;-75
2022/12/24 04:32:52;;;;;;;80.20;36.00;;;;;;;0.71;92.50;97744.46;86725;1287;22577;-75
2022/12/24 04:34:54;;;;;;;75.20;33.80;;;;;;;0.71;92.45;97741.87;86529;1291;23125;-75
2022/12/24 04:36:56;;;;;;;59.30;33.40;;;;;;;0.71;92.38;97744.45;86685;1287;98042;-75
2022/12/24 04:38:57;;;;;;;66.20;31.70;;;;;;;0.70;92.52;97745.51;86876;1289;24234;-75
2022/12/24 04:41:01;;;;;;;60.50;30.30;;;;;;;0.69;92.48;97748.65;86994;1281;22513;-75
2022/12/24 04:43:03;;;;;;;67.70;31.60;;;;;;;0.69;92.28;97748.31;86884;1287;98051;-76
2022/12/24 04:45:05;;;;;;;107.30;33.60;;;;;;;0.68;92.29;97743.48;87050;1295;23185;-75
2022/12/24 04:47:07;;;;;;;57.40;30.60;;;;;;;0.68;92.46;97741.92;86999;1304;24258;-75
2022/12/24 04:49:09;;;;;;;79.10;32.80;;;;;;;0.69;92.34;97742.77;86842;1288;98537;-75
2022/12/24 04:51:11;;;;;;;86.20;31.60;;;;;;;0.70;92.27;97742.58;86953;1281;22526;-75
2022/12/24 04:53:13;;;;;;;87.20;30.40;;;;;;;0.70;92.67;97739.30;86938;1286;22968;-75
2022/12/24 04:55:15;;;;;;;64.70;30.10;;;;;;;0.71;92.53;97736.33;86879;1288;99077;-75
2022/12/24 04:57:17;;;;;;;129.10;33.80;;;;;;;0.70;92.26;97734.80;86620;1292;23395;-76
2022/12/24 04:59:18;;;;;;;100.00;31.10;;;;;;;0.70;92.30;97738.41;86610;1290;22534;-74
2022/12/24 05:01:23;;;;;;;198.70;34.40;;;;;;;0.71;92.20;97738.22;86657;1284;98064;-74
2022/12/24 05:03:24;;;;;;;126.40;33.90;;;;;;;0.71;92.26;97735.64;86657;1287;22505;-74
2022/12/24 05:05:26;;;;;;;95.30;28.90;;;;;;;0.71;92.28;97738.59;86766;1294;22518;-75
2022/12/24 05:07:27;;;;;;;56.20;29.10;;;;;;;0.70;92.38;97736.68;86470;1298;98068;-74
2022/12/24 05:09:29;;;;;;;62.00;30.40;;;;;;;0.70;92.17;97737.74;86656;1289;22475;-75
2022/12/24 05:11:31;;;;;;;65.30;31.70;;;;;;;0.69;92.42;97740.02;86481;1284;22569;-75
2022/12/24 05:13:33;;;;;;;72.30;33.60;;;;;;;0.68;92.05;97740.39;86558;1294;98205;-74
2022/12/24 05:15:34;;;;;;;60.90;32.00;;;;;;;0.69;92.28;97738.80;86713;1285;23040;-75
2022/12/24 05:17:36;;;;;;;56.00;30.30;;;;;;;0.70;92.47;97735.66;86603;1289;22774;-74
2022/12/24 05:19:38;;;;;;;59.50;29.60;;;;;;;0.71;92.40;97738.40;86401;1291;99257;-75
2022/12/24 05:21:39;;;;;;;63.70;29.90;;;;;;;0.74;92.52;97736.05;86529;1287;26004;-75
2022/12/24 05:28:23;;;;;;;62.60;34.00;;;;;;;0.99;92.87;97748.33;86676;1287;23872;-76
2022/12/24 05:30:25;;;;;;;64.60;33.80;;;;;;;1.01;92.62;97735.98;86549;1297;99006;-75
2022/12/24 05:32:27;;;;;;;65.60;34.80;;;;;;;1.16;92.85;97751.59;86591;1281;23842;-75
2022/12/24 05:34:29;;;;;;;56.80;32.90;;;;;;;1.23;93.09;97748.82;86738;1294;22568;-74
2022/12/24 05:36:31;;;;;;;51.70;30.70;;;;;;;1.28;92.92;97751.09;86566;1290;98847;-75
2022/12/24 05:38:32;;;;;;;52.90;29.40;;;;;;;1.32;93.20;97750.60;86645;1287;22704;-75
2022/12/24 05:40:34;;;;;;;51.30;28.60;;;;;;;1.35;93.01;97752.95;86739;1293;23749;-74
2022/12/24 05:42:36;;;;;;;56.00;30.50;;;;;;;1.37;92.90;97753.77;86702;1287;98489;-74
2022/12/24 05:44:37;;;;;;;54.50;31.00;;;;;;;1.40;92.86;97753.83;86731;1281;24256;-75
2022/12/24 05:46:39;;;;;;;55.70;33.10;;;;;;;1.48;93.16;97753.41;86740;1290;24234;-76
2022/12/24 05:48:41;;;;;;;52.00;31.10;;;;;;;1.53;93.16;97751.51;86674;1287;97879;-75
2022/12/24 05:50:43;;;;;;;49.20;30.20;;;;;;;1.57;93.05;97753.14;86681;1291;22724;-75
2022/12/24 05:52:44;;;;;;;47.10;27.80;;;;;;;1.54;93.34;97747.02;86950;1284;22494;-75
2022/12/24 05:54:46;;;;;;;43.30;26.60;;;;;;;1.55;92.98;97755.61;86522;1307;97880;-74
2022/12/24 05:56:48;;;;;;;41.80;24.90;;;;;;;1.52;92.98;97756.55;86845;1291;23385;-75
2022/12/24 05:58:51;;;;;;;49.30;25.70;;;;;;;1.48;92.93;97762.91;86878;1287;22497;-74
2022/12/24 06:00:53;;;;;;;42.10;24.50;;;;;;;1.45;92.58;97760.95;86853;1301;98135;-75
2022/12/24 06:02:54;;;;;;;32.80;22.80;;;;;;;1.41;92.62;97764.52;86866;1314;22549;-74
2022/12/24 06:04:56;;;;;;;45.80;25.70;;;;;;;1.38;92.62;97767.05;86925;1294;22441;-75
2022/12/24 06:06:58;;;;;;;40.00;23.00;;;;;;;1.36;92.23;97767.63;86774;1291;98328;-75
2022/12/24 06:08:59;;;;;;;44.60;24.10;;;;;;;1.33;92.69;97764.61;87042;1294;23828;-75
2022/12/24 06:11:04;;;;;;;42.20;25.00;;;;;;;1.29;92.58;97763.34;86987;1298;23524;-75
2022/12/24 06:13:05;;;;;;;46.90;26.30;;;;;;;1.27;92.65;97768.08;87061;1288;97871;-75
2022/12/24 06:15:08;;;;;;;38.10;21.10;;;;;;;1.24;92.44;97768.69;87050;1304;22506;-75
2022/12/24 06:17:09;;;;;;;84.50;25.30;;;;;;;1.21;92.56;97770.16;86943;1285;22505;-75
2022/12/24 06:19:11;;;;;;;56.60;23.00;;;;;;;1.18;92.40;97773.35;87158;1293;97955;-75
2022/12/24 06:21:14;;;;;;;38.00;23.00;;;;;;;1.16;92.45;97774.95;87105;1303;22488;-75
2022/12/24 06:23:16;;;;;;;38.00;23.00;;;;;;;1.14;92.39;97777.45;87406;1293;22537;-76
2022/12/24 06:25:17;;;;;;;55.00;25.70;;;;;;;1.13;92.44;97776.61;87251;1293;98175;-76
2022/12/24 06:27:19;;;;;;;47.50;24.50;;;;;;;1.10;92.27;97772.88;87413;1297;22519;-76
2022/12/24 06:29:21;;;;;;;50.70;23.60;;;;;;;1.09;92.22;97772.93;87438;1293;22525;-76
2022/12/24 06:31:23;;;;;;;52.20;26.50;;;;;;;1.09;92.40;97774.15;87275;1288;100804;-76
2022/12/24 06:33:24;;;;;;;41.10;26.40;;;;;;;1.10;92.36;97783.26;87379;1287;22484;-77
2022/12/24 06:35:26;;;;;;;50.00;27.20;;;;;;;1.15;92.32;97781.23;87253;1295;23897;-76
2022/12/24 06:37:27;;;;;;;46.40;25.50;;;;;;;1.17;92.65;97778.73;87285;1294;99059;-75
2022/12/24 06:39:29;;;;;;;38.40;24.10;;;;;;;1.19;92.57;97782.33;87312;1297;25318;-75
2022/12/24 06:41:31;;;;;;;39.30;24.00;;;;;;;1.20;92.81;97782.98;86512;1287;23762;-76
2022/12/24 06:43:35;;;;;;;41.80;25.80;;;;;;;1.21;92.38;97786.27;86693;1295;98012;-77
2022/12/24 06:45:38;;;;;;;39.70;24.50;;;;;;;1.20;92.59;97791.99;86618;1291;22632;-77
2022/12/24 06:47:39;;;;;;;45.30;26.00;;;;;;;1.19;92.83;97799.45;86636;1312;22548;-77
2022/12/24 06:49:41;;;;;;;46.40;29.10;;;;;;;1.25;92.76;97800.16;86471;1294;98389;-77
2022/12/24 06:51:42;;;;;;;39.10;27.50;;;;;;;1.32;93.00;97804.77;86614;1288;22951;-77
2022/12/24 06:53:44;;;;;;;44.20;27.70;;;;;;;1.39;92.77;97805.62;86613;1294;22574;-77
2022/12/24 06:55:46;;;;;;;39.30;25.00;;;;;;;1.45;92.65;97807.69;86623;1293;98225;-78
2022/12/24 06:57:47;;;;;;;41.70;26.00;;;;;;;1.48;92.72;97814.87;86655;1285;26886;-77
2022/12/24 06:59:49;;;;;;;45.80;24.70;;;;;;;1.52;92.84;97816.80;86592;1288;23521;-78
2022/12/24 07:01:50;;;;;;;33.40;22.80;;;;;;;1.56;93.12;97820.67;86387;1289;97908;-78
2022/12/24 07:03:52;;;;;;;35.60;23.00;;;;;;;1.57;93.07;97824.12;86831;1292;22614;-78
2022/12/24 07:05:54;;;;;;;34.40;22.30;;;;;;;1.57;92.72;97830.36;86091;1290;23986;-74
2022/12/24 07:07:55;;;;;;;32.90;24.40;;;;;;;1.56;92.68;97834.02;85832;1291;99026;-73
2022/12/24 07:09:57;;;;;;;39.20;24.80;;;;;;;1.60;92.83;97832.51;85917;1290;25330;-74
2022/12/24 07:11:59;;;;;;;32.00;22.10;;;;;;;1.65;92.98;97830.98;85907;1304;22644;-75
2022/12/24 07:14:00;;;;;;;34.70;21.10;;;;;;;1.67;92.91;97832.29;86269;1299;111496;-75
2022/12/24 07:16:03;;;;;;;31.20;19.60;;;;;;;1.69;93.07;97830.48;86179;1294;22523;-74
2022/12/24 07:18:05;;;;;;;35.40;23.90;;;;;;;1.66;92.82;97830.23;85841;1294;98110;-75
2022/12/24 07:20:11;;;;;;;37.60;23.60;;;;;;;1.73;92.93;97830.52;86061;1294;22675;-74
2022/12/24 07:22:12;;;;;;;35.30;25.40;;;;;;;1.76;92.94;97834.77;86137;1287;22492;-74
2022/12/24 07:24:15;;;;;;;33.40;24.50;;;;;;;1.79;92.94;97841.95;86017;1287;99265;-75
2022/12/24 07:26:16;;;;;;;34.50;24.20;;;;;;;1.84;93.16;97842.67;86198;1287;22813;-75
2022/12/24 07:28:18;;;;;;;39.80;21.80;;;;;;;1.90;93.06;97839.56;86039;1290;22484;-74
2022/12/24 07:30:20;;;;;;;27.60;21.30;;;;;;;1.91;93.05;97837.96;85930;1296;99233;-75
2022/12/24 07:32:21;;;;;;;31.90;23.20;;;;;;;1.91;92.97;97841.09;85978;1289;22564;-74
2022/12/24 07:34:23;;;;;;;25.20;20.50;;;;;;;1.93;92.92;97844.15;86025;1289;22536;-76
2022/12/24 07:36:27;;;;;;;28.60;22.00;;;;;;;1.90;93.29;97841.11;86100;1289;99007;-75
2022/12/24 07:38:30;;;;;;;30.20;22.80;;;;;;;1.94;93.09;97846.89;86279;1291;24269;-74
2022/12/24 07:40:33;;;;;;;35.70;21.80;;;;;;;1.96;93.14;97846.28;86079;1287;23043;-75
2022/12/24 07:42:35;;;;;;;34.50;22.60;;;;;;;1.99;92.89;97844.64;85880;1297;99158;-75
2022/12/24 07:44:37;;;;;;;33.00;21.70;;;;;;;2.02;93.04;97851.63;85944;1287;22729;-75
2022/12/24 07:46:39;;;;;;;35.30;24.10;;;;;;;2.05;93.31;97852.39;86144;1289;22489;-75
2022/12/24 07:48:41;;;;;;;32.10;23.20;;;;;;;2.08;93.33;97856.82;86091;1294;97880;-76
2022/12/24 07:50:42;;;;;;;29.10;22.90;;;;;;;2.09;93.10;97858.69;86279;1296;25235;-75
2022/12/24 07:52:44;;;;;;;34.20;25.10;;;;;;;2.13;93.50;97855.27;86081;1287;22443;-75
2022/12/24 07:54:46;;;;;;;36.90;26.60;;;;;;;2.15;93.40;97855.40;86068;1289;99215;-76
2022/12/24 07:56:47;;;;;;;42.10;24.60;;;;;;;2.20;93.20;97860.08;85963;1291;22582;-76
2022/12/24 07:58:50;;;;;;;34.20;23.90;;;;;;;2.24;93.29;97855.61;86088;1297;22509;-75
2022/12/24 08:00:59;;;;;;;36.30;23.60;;;;;;;2.25;93.56;97855.75;85975;1290;99444;-76
2022/12/24 08:03:01;;;;;;;32.10;22.20;;;;;;;2.26;93.39;97858.84;86090;1287;24263;-75
2022/12/24 08:05:03;;;;;;;35.80;24.70;;;;;;;2.27;93.43;97866.27;86131;1312;24588;-75
2022/12/24 08:07:06;;;;;;;32.20;22.30;;;;;;;2.28;93.55;97866.73;85926;1290;99106;-75
2022/12/24 08:09:08;;;;;;;34.40;22.10;;;;;;;2.28;93.30;97868.66;86100;1287;24285;-76
2022/12/24 08:11:09;;;;;;;28.60;21.40;;;;;;;2.26;93.08;97873.57;86053;1287;22484;-74
2022/12/24 08:13:12;;;;;;;26.50;20.10;;;;;;;2.23;93.06;97875.76;85915;1281;100018;-74
2022/12/24 08:15:14;;;;;;;29.10;19.40;;;;;;;2.19;93.10;97881.06;86146;1297;22550;-76
2022/12/24 08:17:16;;;;;;;27.50;20.20;;;;;;;2.15;92.85;97881.52;86090;1287;22617;-75
2022/12/24 08:19:17;;;;;;;29.20;19.30;;;;;;;2.13;92.94;97881.27;86175;1289;98096;-77
2022/12/24 08:21:19;;;;;;;25.80;18.50;;;;;;;2.10;93.01;97883.46;86043;1290;24190;-75
2022/12/24 08:23:21;;;;;;;40.70;22.30;;;;;;;2.07;92.93;97883.38;86019;1298;27483;-75
2022/12/24 08:25:22;;;;;;;30.90;21.90;;;;;;;2.07;92.85;97888.57;86024;1280;99011;-75
2022/12/24 08:27:24;;;;;;;29.90;20.90;;;;;;;2.10;92.62;97890.38;86047;1290;22558;-76
2022/12/24 08:29:27;;;;;;;30.90;20.10;;;;;;;2.17;93.04;97894.46;86057;1282;22533;-76
2022/12/24 08:31:29;;;;;;;25.80;18.20;;;;;;;2.19;92.90;97889.59;86061;1287;97863;-76
2022/12/24 08:33:31;;;;;;;28.80;20.50;;;;;;;2.16;92.77;97890.71;86020;1291;22607;-75
2022/12/24 08:35:32;;;;;;;30.60;19.00;;;;;;;2.16;92.83;97894.52;86151;1287;23152;-76
2022/12/24 08:37:34;;;;;;;27.30;17.30;;;;;;;2.19;92.84;97898.92;86064;1281;99205;-76
2022/12/24 08:39:36;;;;;;;24.20;17.00;;;;;;;2.21;92.81;97905.09;86128;1286;22662;-75
2022/12/24 08:41:37;;;;;;;23.80;16.10;;;;;;;2.25;92.81;97906.00;86101;1290;25542;-75
2022/12/24 08:43:39;;;;;;;19.10;14.90;;;;;;;2.26;93.06;97905.98;85970;1291;99057;-76
2022/12/24 08:45:41;;;;;;;20.70;15.80;;;;;;;2.25;92.69;97911.56;86266;1295;25299;-76
2022/12/24 08:47:43;;;;;;;21.00;13.90;;;;;;;2.23;92.76;97902.98;85969;1291;22499;-76
2022/12/24 08:49:45;;;;;;;22.50;14.80;;;;;;;2.28;92.64;97910.25;86042;1288;99150;-76
2022/12/24 08:51:47;;;;;;;40.70;16.40;;;;;;;2.33;92.71;97908.55;85980;1298;22591;-75
2022/12/24 08:53:49;;;;;;;21.20;15.10;;;;;;;2.36;92.95;97907.59;86179;1290;22541;-76
2022/12/24 08:55:51;;;;;;;21.00;13.10;;;;;;;2.36;93.03;97905.85;85905;1290;98003;-76
2022/12/24 08:57:53;;;;;;;22.50;14.10;;;;;;;2.36;92.96;97906.01;86132;1287;22596;-76
2022/12/24 08:59:54;;;;;;;26.30;13.80;;;;;;;2.37;92.90;97900.59;86033;1290;23860;-77
2022/12/24 09:01:56;;;;;;;21.40;12.50;;;;;;;2.43;92.67;97903.52;86088;1281;97878;-74
2022/12/24 09:03:58;;;;;;;13.30;11.80;;;;;;;2.45;93.02;97913.34;85934;1289;22710;-75
2022/12/24 09:06:02;;;;;;;21.30;12.40;;;;;;;2.45;92.74;97915.09;86059;1291;22497;-77
2022/12/24 09:08:04;;;;;;;17.20;13.70;;;;;;;2.44;92.77;97914.42;85937;1291;22943;-75
2022/12/24 09:10:07;;;;;;;26.00;15.40;;;;;;;2.47;92.91;97913.80;86106;1288;25540;-76
2022/12/24 09:12:09;;;;;;;16.60;12.70;;;;;;;2.51;93.05;97922.16;85834;1291;99169;-76
2022/12/24 09:14:11;;;;;;;21.80;14.90;;;;;;;2.55;92.62;97927.42;86157;1288;22544;-76
2022/12/24 09:16:12;;;;;;;16.00;12.60;;;;;;;2.63;92.86;97928.04;86026;1290;22610;-76
2022/12/24 09:18:14;;;;;;;12.40;9.90;;;;;;;2.66;92.74;97934.67;85816;1290;100065;-76
2022/12/24 09:20:16;;;;;;;14.20;10.70;;;;;;;2.69;93.01;97937.53;85935;1290;22706;-77
2022/12/24 09:22:18;;;;;;;17.40;11.50;;;;;;;2.70;92.86;97932.13;86012;1290;22539;-77
2022/12/24 09:24:19;;;;;;;18.10;13.00;;;;;;;2.70;92.71;97933.33;85871;1289;99221;-76
2022/12/24 09:26:25;;;;;;;20.20;13.20;;;;;;;2.73;92.75;97938.26;86028;1291;22621;-76
2022/12/24 09:28:27;;;;;;;25.10;13.90;;;;;;;2.75;92.71;97938.89;86195;1282;22477;-77
2022/12/24 09:30:29;;;;;;;24.20;14.70;;;;;;;2.76;92.69;97942.50;86026;1286;100038;-76
2022/12/24 09:32:31;;;;;;;30.00;14.90;;;;;;;2.82;92.99;97940.05;85884;1310;22481;-76
2022/12/24 09:34:33;;;;;;;21.20;13.60;;;;;;;2.87;92.96;97937.27;86030;1288;22506;-77
2022/12/24 09:36:34;;;;;;;23.10;12.50;;;;;;;2.88;93.07;97941.77;85905;1290;98050;-77
2022/12/24 09:38:39;;;;;;;24.40;13.90;;;;;;;2.88;92.81;97941.93;86177;1287;22736;-76
2022/12/24 09:40:40;;;;;;;17.30;11.50;;;;;;;2.87;92.92;97945.77;86042;1287;25290;-76